sensor_id;sensor_type;location;lat;lon;timestamp;temperature;humidity
75489;HTU21D;64069;46.396;48.102;2023-10-09T00:00:08;15.82;95.92
75489;HTU21D;64069;46.396;48.102;2023-10-09T00:02:53;15.55;95.27
75489;HTU21D;64069;46.396;48.102;2023-10-09T00:05:20;15.29;95.18
75489;HTU21D;64069;46.396;48.102;2023-10-09T00:07:53;15.07;95.10
75489;HTU21D;64069;46.396;48.102;2023-10-09T00:10:23;14.88;94.95
75489;HTU21D;64069;46.396;48.102;2023-10-09T00:13:01;14.68;94.73
75489;HTU21D;64069;46.396;48.102;2023-10-09T00:15:26;14.50;94.68
75489;HTU21D;64069;46.396;48.102;2023-10-09T00:17:54;14.35;94.64
75489;HTU21D;64069;46.396;48.102;2023-10-09T00:20:24;14.19;94.62
75489;HTU21D;64069;46.396;48.102;2023-10-09T00:23:04;14.04;94.62
75489;HTU21D;64069;46.396;48.102;2023-10-09T00:25:38;13.93;94.65
75489;HTU21D;64069;46.396;48.102;2023-10-09T00:28:11;13.84;94.68
75489;HTU21D;64069;46.396;48.102;2023-10-09T00:30:41;13.79;94.70
75489;HTU21D;64069;46.396;48.102;2023-10-09T00:33:07;13.69;94.72
75489;HTU21D;64069;46.396;48.102;2023-10-09T00:35:38;13.54;94.76
75489;HTU21D;64069;46.396;48.102;2023-10-09T00:38:10;13.43;94.84
75489;HTU21D;64069;46.396;48.102;2023-10-09T00:40:45;13.32;94.95
75489;HTU21D;64069;46.396;48.102;2023-10-09T00:43:14;13.22;95.02
75489;HTU21D;64069;46.396;48.102;2023-10-09T00:45:41;13.17;95.07
75489;HTU21D;64069;46.396;48.102;2023-10-09T00:48:10;13.14;95.02
75489;HTU21D;64069;46.396;48.102;2023-10-09T00:50:40;13.10;95.00
75489;HTU21D;64069;46.396;48.102;2023-10-09T00:53:13;13.05;94.98
75489;HTU21D;64069;46.396;48.102;2023-10-09T00:55:44;13.02;95.10
75489;HTU21D;64069;46.396;48.102;2023-10-09T00:58:14;12.97;95.19
75489;HTU21D;64069;46.396;48.102;2023-10-09T01:00:49;12.94;95.33
75489;HTU21D;64069;46.396;48.102;2023-10-09T01:03:19;12.88;95.43
75489;HTU21D;64069;46.396;48.102;2023-10-09T01:08:29;12.77;95.45
75489;HTU21D;64069;46.396;48.102;2023-10-09T01:11:13;12.69;95.45
75489;HTU21D;64069;46.396;48.102;2023-10-09T01:13:51;12.60;95.46
75489;HTU21D;64069;46.396;48.102;2023-10-09T01:16:18;12.49;95.44
75489;HTU21D;64069;46.396;48.102;2023-10-09T01:18:48;12.37;95.23
75489;HTU21D;64069;46.396;48.102;2023-10-09T01:21:18;12.23;94.96
75489;HTU21D;64069;46.396;48.102;2023-10-09T01:23:50;12.08;94.72
75489;HTU21D;64069;46.396;48.102;2023-10-09T01:26:36;11.97;94.55
75489;HTU21D;64069;46.396;48.102;2023-10-09T01:29:08;11.86;94.41
75489;HTU21D;64069;46.396;48.102;2023-10-09T01:31:55;11.75;93.96
75489;HTU21D;64069;46.396;48.102;2023-10-09T01:34:25;11.69;93.88
75489;HTU21D;64069;46.396;48.102;2023-10-09T01:37:06;11.62;93.75
75489;HTU21D;64069;46.396;48.102;2023-10-09T01:39:39;11.58;93.61
75489;HTU21D;64069;46.396;48.102;2023-10-09T01:42:08;11.53;93.36
75489;HTU21D;64069;46.396;48.102;2023-10-09T01:44:35;11.49;93.13
75489;HTU21D;64069;46.396;48.102;2023-10-09T01:47:04;11.47;92.92
75489;HTU21D;64069;46.396;48.102;2023-10-09T01:49:34;11.43;92.70
75489;HTU21D;64069;46.396;48.102;2023-10-09T01:52:03;11.38;92.40
75489;HTU21D;64069;46.396;48.102;2023-10-09T01:54:36;11.31;92.27
75489;HTU21D;64069;46.396;48.102;2023-10-09T01:57:04;11.27;91.99
75489;HTU21D;64069;46.396;48.102;2023-10-09T01:59:44;11.22;91.79
75489;HTU21D;64069;46.396;48.102;2023-10-09T02:02:15;11.16;91.64
75489;HTU21D;64069;46.396;48.102;2023-10-09T02:04:40;11.13;91.58
75489;HTU21D;64069;46.396;48.102;2023-10-09T02:07:07;11.09;91.53
75489;HTU21D;64069;46.396;48.102;2023-10-09T02:09:35;11.07;91.50
75489;HTU21D;64069;46.396;48.102;2023-10-09T02:12:10;11.08;91.42
75489;HTU21D;64069;46.396;48.102;2023-10-09T02:14:36;11.10;91.34
75489;HTU21D;64069;46.396;48.102;2023-10-09T02:17:07;11.12;91.25
75489;HTU21D;64069;46.396;48.102;2023-10-09T02:19:55;11.16;91.10
75489;HTU21D;64069;46.396;48.102;2023-10-09T02:22:21;11.15;91.02
75489;HTU21D;64069;46.396;48.102;2023-10-09T02:24:51;11.17;90.96
75489;HTU21D;64069;46.396;48.102;2023-10-09T02:27:23;11.15;90.94
75489;HTU21D;64069;46.396;48.102;2023-10-09T02:30:08;11.13;90.93
75489;HTU21D;64069;46.396;48.102;2023-10-09T02:33:04;11.12;90.88
75489;HTU21D;64069;46.396;48.102;2023-10-09T02:35:34;11.11;90.89
75489;HTU21D;64069;46.396;48.102;2023-10-09T02:38:09;11.12;90.83
75489;HTU21D;64069;46.396;48.102;2023-10-09T02:40:40;11.11;90.82
75489;HTU21D;64069;46.396;48.102;2023-10-09T02:43:28;11.10;90.86
75489;HTU21D;64069;46.396;48.102;2023-10-09T02:45:53;11.10;90.86
75489;HTU21D;64069;46.396;48.102;2023-10-09T02:48:19;11.08;90.86
75489;HTU21D;64069;46.396;48.102;2023-10-09T02:50:46;11.11;90.84
75489;HTU21D;64069;46.396;48.102;2023-10-09T02:53:12;11.11;90.82
75489;HTU21D;64069;46.396;48.102;2023-10-09T02:55:54;11.12;90.81
75489;HTU21D;64069;46.396;48.102;2023-10-09T02:58:39;11.13;90.79
75489;HTU21D;64069;46.396;48.102;2023-10-09T03:01:14;11.19;90.71
75489;HTU21D;64069;46.396;48.102;2023-10-09T03:03:41;11.23;90.60
75489;HTU21D;64069;46.396;48.102;2023-10-09T03:06:15;11.26;90.53
75489;HTU21D;64069;46.396;48.102;2023-10-09T03:08:50;11.26;90.48
75489;HTU21D;64069;46.396;48.102;2023-10-09T03:11:16;11.25;90.41
75489;HTU21D;64069;46.396;48.102;2023-10-09T03:13:44;11.20;90.43
75489;HTU21D;64069;46.396;48.102;2023-10-09T03:16:14;11.15;90.43
75489;HTU21D;64069;46.396;48.102;2023-10-09T03:18:50;11.08;90.40
75489;HTU21D;64069;46.396;48.102;2023-10-09T03:21:16;11.03;90.39
75489;HTU21D;64069;46.396;48.102;2023-10-09T03:23:46;10.99;90.28
75489;HTU21D;64069;46.396;48.102;2023-10-09T03:26:19;10.93;90.21
75489;HTU21D;64069;46.396;48.102;2023-10-09T03:28:47;10.89;90.15
75489;HTU21D;64069;46.396;48.102;2023-10-09T03:31:13;10.87;90.08
75489;HTU21D;64069;46.396;48.102;2023-10-09T03:33:40;10.88;89.99
75489;HTU21D;64069;46.396;48.102;2023-10-09T03:36:07;10.86;89.91
75489;HTU21D;64069;46.396;48.102;2023-10-09T03:38:38;10.88;89.81
75489;HTU21D;64069;46.396;48.102;2023-10-09T03:41:05;10.88;89.74
75489;HTU21D;64069;46.396;48.102;2023-10-09T03:43:35;10.88;89.69
75489;HTU21D;64069;46.396;48.102;2023-10-09T03:46:10;10.89;89.65
75489;HTU21D;64069;46.396;48.102;2023-10-09T03:48:54;10.93;89.56
75489;HTU21D;64069;46.396;48.102;2023-10-09T03:51:23;10.93;89.49
75489;HTU21D;64069;46.396;48.102;2023-10-09T03:53:51;10.89;89.43
75489;HTU21D;64069;46.396;48.102;2023-10-09T03:56:20;10.89;89.46
75489;HTU21D;64069;46.396;48.102;2023-10-09T03:58:51;10.87;89.37
75489;HTU21D;64069;46.396;48.102;2023-10-09T04:01:21;10.83;89.34
75489;HTU21D;64069;46.396;48.102;2023-10-09T04:03:54;10.86;89.32
75489;HTU21D;64069;46.396;48.102;2023-10-09T04:06:22;10.89;89.18
75489;HTU21D;64069;46.396;48.102;2023-10-09T04:08:48;10.90;89.09
75489;HTU21D;64069;46.396;48.102;2023-10-09T04:11:16;10.89;89.00
75489;HTU21D;64069;46.396;48.102;2023-10-09T04:13:45;10.86;88.97
75489;HTU21D;64069;46.396;48.102;2023-10-09T04:16:12;10.88;88.83
75489;HTU21D;64069;46.396;48.102;2023-10-09T04:18:57;10.88;88.54
75489;HTU21D;64069;46.396;48.102;2023-10-09T04:21:25;10.89;88.19
75489;HTU21D;64069;46.396;48.102;2023-10-09T04:24:08;10.90;87.78
75489;HTU21D;64069;46.396;48.102;2023-10-09T04:26:41;10.92;87.48
75489;HTU21D;64069;46.396;48.102;2023-10-09T04:29:11;10.92;87.15
75489;HTU21D;64069;46.396;48.102;2023-10-09T04:31:56;10.86;86.67
75489;HTU21D;64069;46.396;48.102;2023-10-09T04:34:26;10.80;86.38
75489;HTU21D;64069;46.396;48.102;2023-10-09T04:37:00;10.73;86.14
75489;HTU21D;64069;46.396;48.102;2023-10-09T04:39:29;10.67;85.54
75489;HTU21D;64069;46.396;48.102;2023-10-09T04:41:56;10.58;85.13
75489;HTU21D;64069;46.396;48.102;2023-10-09T04:44:45;10.55;85.13
75489;HTU21D;64069;46.396;48.102;2023-10-09T04:47:30;10.55;85.01
75489;HTU21D;64069;46.396;48.102;2023-10-09T04:50:15;10.51;84.52
75489;HTU21D;64069;46.396;48.102;2023-10-09T04:52:44;10.45;84.48
75489;HTU21D;64069;46.396;48.102;2023-10-09T04:55:10;10.41;84.32
75489;HTU21D;64069;46.396;48.102;2023-10-09T04:57:42;10.35;84.13
75489;HTU21D;64069;46.396;48.102;2023-10-09T05:00:13;10.35;84.14
75489;HTU21D;64069;46.396;48.102;2023-10-09T05:05:29;10.30;83.69
75489;HTU21D;64069;46.396;48.102;2023-10-09T05:10:47;10.23;83.53
75489;HTU21D;64069;46.396;48.102;2023-10-09T05:13:29;10.20;83.29
75489;HTU21D;64069;46.396;48.102;2023-10-09T05:16:14;10.14;83.14
75489;HTU21D;64069;46.396;48.102;2023-10-09T05:18:55;10.12;83.04
75489;HTU21D;64069;46.396;48.102;2023-10-09T05:21:23;10.11;82.83
75489;HTU21D;64069;46.396;48.102;2023-10-09T05:23:58;10.11;82.73
75489;HTU21D;64069;46.396;48.102;2023-10-09T05:26:46;10.07;82.65
75489;HTU21D;64069;46.396;48.102;2023-10-09T05:29:13;10.06;82.68
75489;HTU21D;64069;46.396;48.102;2023-10-09T05:31:51;10.04;82.51
75489;HTU21D;64069;46.396;48.102;2023-10-09T05:34:36;10.05;82.67
75489;HTU21D;64069;46.396;48.102;2023-10-09T05:37:23;10.04;82.46
75489;HTU21D;64069;46.396;48.102;2023-10-09T05:39:59;10.06;82.44
75489;HTU21D;64069;46.396;48.102;2023-10-09T05:42:26;10.10;82.13
75489;HTU21D;64069;46.396;48.102;2023-10-09T05:45:17;10.12;81.66
75489;HTU21D;64069;46.396;48.102;2023-10-09T05:47:43;10.14;81.46
75489;HTU21D;64069;46.396;48.102;2023-10-09T05:50:35;10.20;81.15
75489;HTU21D;64069;46.396;48.102;2023-10-09T05:53:04;10.24;80.94
75489;HTU21D;64069;46.396;48.102;2023-10-09T05:55:32;10.29;80.56
75489;HTU21D;64069;46.396;48.102;2023-10-09T05:58:16;10.34;80.30
75489;HTU21D;64069;46.396;48.102;2023-10-09T06:01:06;10.41;80.14
75489;HTU21D;64069;46.396;48.102;2023-10-09T06:03:32;10.46;79.81
75489;HTU21D;64069;46.396;48.102;2023-10-09T06:06:16;10.51;79.62
75489;HTU21D;64069;46.396;48.102;2023-10-09T06:09:21;10.58;79.17
75489;HTU21D;64069;46.396;48.102;2023-10-09T06:11:48;10.60;78.76
75489;HTU21D;64069;46.396;48.102;2023-10-09T06:14:20;10.68;78.35
75489;HTU21D;64069;46.396;48.102;2023-10-09T06:16:56;10.77;78.08
75489;HTU21D;64069;46.396;48.102;2023-10-09T06:19:23;10.89;77.57
75489;HTU21D;64069;46.396;48.102;2023-10-09T06:21:56;10.99;77.15
75489;HTU21D;64069;46.396;48.102;2023-10-09T06:24:38;11.17;77.08
75489;HTU21D;64069;46.396;48.102;2023-10-09T06:27:11;11.29;76.21
75489;HTU21D;64069;46.396;48.102;2023-10-09T06:29:40;11.18;76.17
75489;HTU21D;64069;46.396;48.102;2023-10-09T06:32:15;11.08;75.89
75489;HTU21D;64069;46.396;48.102;2023-10-09T06:34:50;11.02;75.89
75489;HTU21D;64069;46.396;48.102;2023-10-09T06:37:23;11.04;75.86
75489;HTU21D;64069;46.396;48.102;2023-10-09T06:42:16;10.95;75.73
75489;HTU21D;64069;46.396;48.102;2023-10-09T06:45:04;10.90;76.02
75489;HTU21D;64069;46.396;48.102;2023-10-09T06:47:49;10.86;75.87
75489;HTU21D;64069;46.396;48.102;2023-10-09T06:50:22;10.85;75.66
75489;HTU21D;64069;46.396;48.102;2023-10-09T06:52:52;10.71;75.28
75489;HTU21D;64069;46.396;48.102;2023-10-09T06:55:51;10.70;75.41
75489;HTU21D;64069;46.396;48.102;2023-10-09T06:58:21;10.72;75.02
75489;HTU21D;64069;46.396;48.102;2023-10-09T07:00:53;10.79;74.81
75489;HTU21D;64069;46.396;48.102;2023-10-09T07:03:39;10.83;74.59
75489;HTU21D;64069;46.396;48.102;2023-10-09T07:06:31;10.83;74.42
75489;HTU21D;64069;46.396;48.102;2023-10-09T07:09:00;10.87;74.29
75489;HTU21D;64069;46.396;48.102;2023-10-09T07:11:37;10.99;74.14
75489;HTU21D;64069;46.396;48.102;2023-10-09T07:17:03;11.18;73.58
75489;HTU21D;64069;46.396;48.102;2023-10-09T07:19:43;11.31;73.57
75489;HTU21D;64069;46.396;48.102;2023-10-09T07:22:24;11.43;73.06
75489;HTU21D;64069;46.396;48.102;2023-10-09T07:24:56;11.51;73.12
75489;HTU21D;64069;46.396;48.102;2023-10-09T07:27:23;11.59;72.70
75489;HTU21D;64069;46.396;48.102;2023-10-09T07:30:09;11.64;72.67
75489;HTU21D;64069;46.396;48.102;2023-10-09T07:33:00;11.75;72.00
75489;HTU21D;64069;46.396;48.102;2023-10-09T07:35:47;11.76;71.83
75489;HTU21D;64069;46.396;48.102;2023-10-09T07:38:19;11.73;71.57
75489;HTU21D;64069;46.396;48.102;2023-10-09T07:40:46;11.66;71.34
75489;HTU21D;64069;46.396;48.102;2023-10-09T07:43:23;11.66;71.35
75489;HTU21D;64069;46.396;48.102;2023-10-09T07:45:55;11.68;71.07
75489;HTU21D;64069;46.396;48.102;2023-10-09T07:48:26;11.75;70.87
75489;HTU21D;64069;46.396;48.102;2023-10-09T07:50:55;11.93;70.44
75489;HTU21D;64069;46.396;48.102;2023-10-09T07:53:24;11.96;70.13
75489;HTU21D;64069;46.396;48.102;2023-10-09T07:55:56;11.99;70.11
75489;HTU21D;64069;46.396;48.102;2023-10-09T07:58:32;12.07;70.01
75489;HTU21D;64069;46.396;48.102;2023-10-09T08:01:13;12.21;70.03
75489;HTU21D;64069;46.396;48.102;2023-10-09T08:03:50;12.29;69.56
75489;HTU21D;64069;46.396;48.102;2023-10-09T08:06:46;12.11;69.59
75489;HTU21D;64069;46.396;48.102;2023-10-09T08:09:13;12.05;69.93
75489;HTU21D;64069;46.396;48.102;2023-10-09T08:14:09;12.12;69.57
75489;HTU21D;64069;46.396;48.102;2023-10-09T08:16:54;12.04;69.75
75489;HTU21D;64069;46.396;48.102;2023-10-09T08:19:39;12.18;69.87
75489;HTU21D;64069;46.396;48.102;2023-10-09T08:22:25;12.33;69.50
75489;HTU21D;64069;46.396;48.102;2023-10-09T08:24:51;12.30;69.16
75489;HTU21D;64069;46.396;48.102;2023-10-09T08:27:28;12.25;69.24
75489;HTU21D;64069;46.396;48.102;2023-10-09T08:30:05;12.21;69.03
75489;HTU21D;64069;46.396;48.102;2023-10-09T08:32:52;12.26;69.11
75489;HTU21D;64069;46.396;48.102;2023-10-09T08:35:33;12.36;68.94
75489;HTU21D;64069;46.396;48.102;2023-10-09T08:38:02;12.75;68.66
75489;HTU21D;64069;46.396;48.102;2023-10-09T08:40:38;13.31;67.50
75489;HTU21D;64069;46.396;48.102;2023-10-09T08:43:14;13.44;67.49
75489;HTU21D;64069;46.396;48.102;2023-10-09T08:45:48;13.22;67.10
75489;HTU21D;64069;46.396;48.102;2023-10-09T08:48:18;13.09;67.24
75489;HTU21D;64069;46.396;48.102;2023-10-09T08:50:46;12.91;67.34
75489;HTU21D;64069;46.396;48.102;2023-10-09T08:53:16;12.84;67.51
75489;HTU21D;64069;46.396;48.102;2023-10-09T08:55:43;12.70;67.35
75489;HTU21D;64069;46.396;48.102;2023-10-09T08:58:10;12.64;67.49
75489;HTU21D;64069;46.396;48.102;2023-10-09T09:00:47;12.65;67.22
75489;HTU21D;64069;46.396;48.102;2023-10-09T09:03:23;12.74;67.05
75489;HTU21D;64069;46.396;48.102;2023-10-09T09:06:01;12.86;66.46
75489;HTU21D;64069;46.396;48.102;2023-10-09T09:08:29;12.95;66.01
75489;HTU21D;64069;46.396;48.102;2023-10-09T09:11:01;13.09;65.72
75489;HTU21D;64069;46.396;48.102;2023-10-09T09:13:44;13.19;65.39
75489;HTU21D;64069;46.396;48.102;2023-10-09T09:16:18;13.32;64.95
75489;HTU21D;64069;46.396;48.102;2023-10-09T09:19:00;13.40;64.32
75489;HTU21D;64069;46.396;48.102;2023-10-09T09:21:34;13.41;64.04
75489;HTU21D;64069;46.396;48.102;2023-10-09T09:24:07;13.35;63.85
75489;HTU21D;64069;46.396;48.102;2023-10-09T09:27:00;13.41;63.35
75489;HTU21D;64069;46.396;48.102;2023-10-09T09:32:11;13.74;62.53
75489;HTU21D;64069;46.396;48.102;2023-10-09T09:34:49;14.01;61.85
75489;HTU21D;64069;46.396;48.102;2023-10-09T09:37:28;14.04;61.33
75489;HTU21D;64069;46.396;48.102;2023-10-09T09:39:58;14.03;61.27
75489;HTU21D;64069;46.396;48.102;2023-10-09T09:42:31;13.94;60.67
75489;HTU21D;64069;46.396;48.102;2023-10-09T09:45:01;13.79;60.31
75489;HTU21D;64069;46.396;48.102;2023-10-09T09:47:31;13.56;60.27
75489;HTU21D;64069;46.396;48.102;2023-10-09T09:50:05;13.43;60.26
75489;HTU21D;64069;46.396;48.102;2023-10-09T09:52:44;13.41;60.62
75489;HTU21D;64069;46.396;48.102;2023-10-09T09:55:12;13.54;59.97
75489;HTU21D;64069;46.396;48.102;2023-10-09T09:57:49;13.60;59.09
75489;HTU21D;64069;46.396;48.102;2023-10-09T10:00:25;13.53;58.54
75489;HTU21D;64069;46.396;48.102;2023-10-09T10:03:26;13.48;58.56
75489;HTU21D;64069;46.396;48.102;2023-10-09T10:05:56;13.47;58.50
75489;HTU21D;64069;46.396;48.102;2023-10-09T10:08:24;13.48;58.35
75489;HTU21D;64069;46.396;48.102;2023-10-09T10:10:59;13.36;58.32
75489;HTU21D;64069;46.396;48.102;2023-10-09T10:18:57;13.08;58.05
75489;HTU21D;64069;46.396;48.102;2023-10-09T10:21:39;12.92;57.81
75489;HTU21D;64069;46.396;48.102;2023-10-09T10:27:25;12.71;57.29
75489;HTU21D;64069;46.396;48.102;2023-10-09T10:35:21;12.74;57.61
75489;HTU21D;64069;46.396;48.102;2023-10-09T10:37:59;12.78;57.60
75489;HTU21D;64069;46.396;48.102;2023-10-09T10:40:34;12.85;57.02
75489;HTU21D;64069;46.396;48.102;2023-10-09T10:43:18;12.84;56.74
75489;HTU21D;64069;46.396;48.102;2023-10-09T10:46:06;12.91;56.88
75489;HTU21D;64069;46.396;48.102;2023-10-09T10:49:07;13.01;56.42
75489;HTU21D;64069;46.396;48.102;2023-10-09T10:51:50;12.96;55.84
75489;HTU21D;64069;46.396;48.102;2023-10-09T10:54:27;12.92;55.89
75489;HTU21D;64069;46.396;48.102;2023-10-09T10:57:00;12.99;56.04
75489;HTU21D;64069;46.396;48.102;2023-10-09T10:59:39;13.12;55.93
75489;HTU21D;64069;46.396;48.102;2023-10-09T11:02:12;0.00;55.84
75489;HTU21D;64069;46.396;48.102;2023-10-09T11:04:38;13.31;55.71
75489;HTU21D;64069;46.396;48.102;2023-10-09T11:07:08;13.41;55.28
75489;HTU21D;64069;46.396;48.102;2023-10-09T11:09:54;13.55;55.00
75489;HTU21D;64069;46.396;48.102;2023-10-09T11:12:45;13.71;54.71
75489;HTU21D;64069;46.396;48.102;2023-10-09T11:15:34;13.75;54.39
75489;HTU21D;64069;46.396;48.102;2023-10-09T11:18:15;13.74;54.24
75489;HTU21D;64069;46.396;48.102;2023-10-09T11:20:57;13.80;54.01
75489;HTU21D;64069;46.396;48.102;2023-10-09T11:23:31;13.91;53.25
75489;HTU21D;64069;46.396;48.102;2023-10-09T11:26:01;13.82;52.43
75489;HTU21D;64069;46.396;48.102;2023-10-09T11:29:01;13.74;52.69
75489;HTU21D;64069;46.396;48.102;2023-10-09T11:32:02;13.70;52.56
75489;HTU21D;64069;46.396;48.102;2023-10-09T11:34:33;13.61;52.44
75489;HTU21D;64069;46.396;48.102;2023-10-09T11:37:12;13.53;52.10
75489;HTU21D;64069;46.396;48.102;2023-10-09T11:39:59;13.53;52.70
75489;HTU21D;64069;46.396;48.102;2023-10-09T11:42:27;13.61;52.24
75489;HTU21D;64069;46.396;48.102;2023-10-09T11:45:22;13.64;51.82
75489;HTU21D;64069;46.396;48.102;2023-10-09T11:47:56;13.60;51.90
75489;HTU21D;64069;46.396;48.102;2023-10-09T11:50:46;13.55;51.37
75489;HTU21D;64069;46.396;48.102;2023-10-09T11:53:44;13.49;51.21
75489;HTU21D;64069;46.396;48.102;2023-10-09T11:56:24;13.49;50.96
75489;HTU21D;64069;46.396;48.102;2023-10-09T11:58:55;13.47;51.04
75489;HTU21D;64069;46.396;48.102;2023-10-09T12:01:24;13.50;51.04
75489;HTU21D;64069;46.396;48.102;2023-10-09T12:03:52;13.52;50.99
75489;HTU21D;64069;46.396;48.102;2023-10-09T12:06:21;13.55;50.99
75489;HTU21D;64069;46.396;48.102;2023-10-09T12:08:49;13.60;50.48
75489;HTU21D;64069;46.396;48.102;2023-10-09T12:11:16;13.58;50.08
75489;HTU21D;64069;46.396;48.102;2023-10-09T12:13:57;13.58;50.08
75489;HTU21D;64069;46.396;48.102;2023-10-09T12:16:24;13.58;49.77
75489;HTU21D;64069;46.396;48.102;2023-10-09T12:19:12;13.62;49.87
75489;HTU21D;64069;46.396;48.102;2023-10-09T12:21:40;13.65;49.76
75489;HTU21D;64069;46.396;48.102;2023-10-09T12:24:09;13.68;49.42
75489;HTU21D;64069;46.396;48.102;2023-10-09T12:26:38;13.68;48.73
75489;HTU21D;64069;46.396;48.102;2023-10-09T12:29:06;13.69;48.23
75489;HTU21D;64069;46.396;48.102;2023-10-09T12:31:37;13.73;48.19
75489;HTU21D;64069;46.396;48.102;2023-10-09T12:34:03;13.71;47.71
75489;HTU21D;64069;46.396;48.102;2023-10-09T12:36:32;13.70;47.14
75489;HTU21D;64069;46.396;48.102;2023-10-09T12:39:04;13.74;46.99
75489;HTU21D;64069;46.396;48.102;2023-10-09T12:41:31;13.80;46.82
75489;HTU21D;64069;46.396;48.102;2023-10-09T12:44:04;13.88;45.83
75489;HTU21D;64069;46.396;48.102;2023-10-09T12:46:37;13.88;45.28
75489;HTU21D;64069;46.396;48.102;2023-10-09T12:49:04;13.89;44.40
75489;HTU21D;64069;46.396;48.102;2023-10-09T12:51:31;13.81;43.87
75489;HTU21D;64069;46.396;48.102;2023-10-09T12:53:57;13.73;43.75
75489;HTU21D;64069;46.396;48.102;2023-10-09T12:56:25;13.62;44.16
75489;HTU21D;64069;46.396;48.102;2023-10-09T12:59:05;13.54;44.29
75489;HTU21D;64069;46.396;48.102;2023-10-09T13:01:32;13.50;44.39
75489;HTU21D;64069;46.396;48.102;2023-10-09T13:04:14;13.48;44.42
75489;HTU21D;64069;46.396;48.102;2023-10-09T13:06:45;13.47;44.34
75489;HTU21D;64069;46.396;48.102;2023-10-09T13:09:16;13.46;43.93
75489;HTU21D;64069;46.396;48.102;2023-10-09T13:11:51;13.41;44.16
75489;HTU21D;64069;46.396;48.102;2023-10-09T13:14:16;13.33;44.09
75489;HTU21D;64069;46.396;48.102;2023-10-09T13:16:43;13.24;44.28
75489;HTU21D;64069;46.396;48.102;2023-10-09T13:19:09;13.16;44.08
75489;HTU21D;64069;46.396;48.102;2023-10-09T13:21:38;13.10;43.93
75489;HTU21D;64069;46.396;48.102;2023-10-09T13:24:07;13.06;43.84
75489;HTU21D;64069;46.396;48.102;2023-10-09T13:26:42;12.99;43.81
75489;HTU21D;64069;46.396;48.102;2023-10-09T13:29:13;12.94;43.55
75489;HTU21D;64069;46.396;48.102;2023-10-09T13:31:44;12.89;43.38
75489;HTU21D;64069;46.396;48.102;2023-10-09T13:34:13;12.82;43.22
75489;HTU21D;64069;46.396;48.102;2023-10-09T13:36:42;12.76;43.00
75489;HTU21D;64069;46.396;48.102;2023-10-09T13:39:24;12.69;43.65
75489;HTU21D;64069;46.396;48.102;2023-10-09T13:41:54;12.61;42.81
75489;HTU21D;64069;46.396;48.102;2023-10-09T13:44:33;12.53;42.66
75489;HTU21D;64069;46.396;48.102;2023-10-09T13:47:01;12.46;42.38
75489;HTU21D;64069;46.396;48.102;2023-10-09T13:49:31;12.41;42.36
75489;HTU21D;64069;46.396;48.102;2023-10-09T13:52:07;12.33;42.06
75489;HTU21D;64069;46.396;48.102;2023-10-09T13:54:35;12.25;41.85
75489;HTU21D;64069;46.396;48.102;2023-10-09T13:57:03;12.13;42.14
75489;HTU21D;64069;46.396;48.102;2023-10-09T13:59:35;12.05;42.27
75489;HTU21D;64069;46.396;48.102;2023-10-09T14:02:03;11.96;42.35
75489;HTU21D;64069;46.396;48.102;2023-10-09T14:04:36;11.84;42.81
75489;HTU21D;64069;46.396;48.102;2023-10-09T14:07:02;11.73;42.82
75489;HTU21D;64069;46.396;48.102;2023-10-09T14:09:31;11.66;43.06
75489;HTU21D;64069;46.396;48.102;2023-10-09T14:12:04;11.55;43.35
75489;HTU21D;64069;46.396;48.102;2023-10-09T14:14:41;11.52;43.41
75489;HTU21D;64069;46.396;48.102;2023-10-09T14:17:15;11.45;43.87
75489;HTU21D;64069;46.396;48.102;2023-10-09T14:19:56;11.40;44.15
75489;HTU21D;64069;46.396;48.102;2023-10-09T14:22:43;11.36;44.46
75489;HTU21D;64069;46.396;48.102;2023-10-09T14:25:11;11.28;44.72
75489;HTU21D;64069;46.396;48.102;2023-10-09T14:27:41;11.20;44.99
75489;HTU21D;64069;46.396;48.102;2023-10-09T14:30:08;11.15;45.24
75489;HTU21D;64069;46.396;48.102;2023-10-09T14:32:45;11.08;45.56
75489;HTU21D;64069;46.396;48.102;2023-10-09T14:35:17;10.98;45.93
75489;HTU21D;64069;46.396;48.102;2023-10-09T14:37:47;10.88;46.28
75489;HTU21D;64069;46.396;48.102;2023-10-09T14:40:15;10.79;46.61
75489;HTU21D;64069;46.396;48.102;2023-10-09T14:42:46;10.71;46.96
75489;HTU21D;64069;46.396;48.102;2023-10-09T14:45:12;10.62;47.20
75489;HTU21D;64069;46.396;48.102;2023-10-09T14:47:43;10.53;47.48
75489;HTU21D;64069;46.396;48.102;2023-10-09T14:50:13;10.44;47.79
75489;HTU21D;64069;46.396;48.102;2023-10-09T14:52:40;10.35;48.09
75489;HTU21D;64069;46.396;48.102;2023-10-09T14:55:10;10.27;48.35
75489;HTU21D;64069;46.396;48.102;2023-10-09T14:57:40;10.21;48.59
75489;HTU21D;64069;46.396;48.102;2023-10-09T15:00:08;10.13;48.82
75489;HTU21D;64069;46.396;48.102;2023-10-09T15:02:37;10.06;49.05
75489;HTU21D;64069;46.396;48.102;2023-10-09T15:05:05;9.98;49.29
75489;HTU21D;64069;46.396;48.102;2023-10-09T15:07:36;9.90;49.59
75489;HTU21D;64069;46.396;48.102;2023-10-09T15:10:05;9.83;49.86
75489;HTU21D;64069;46.396;48.102;2023-10-09T15:12:35;9.76;50.05
75489;HTU21D;64069;46.396;48.102;2023-10-09T15:15:11;9.68;50.29
75489;HTU21D;64069;46.396;48.102;2023-10-09T15:17:44;9.64;50.51
75489;HTU21D;64069;46.396;48.102;2023-10-09T15:20:19;9.56;50.73
75489;HTU21D;64069;46.396;48.102;2023-10-09T15:22:46;9.52;50.91
75489;HTU21D;64069;46.396;48.102;2023-10-09T15:25:13;9.49;51.08
75489;HTU21D;64069;46.396;48.102;2023-10-09T15:28:20;9.48;51.23
75489;HTU21D;64069;46.396;48.102;2023-10-09T15:30:47;9.45;51.30
75489;HTU21D;64069;46.396;48.102;2023-10-09T15:33:15;9.41;51.43
75489;HTU21D;64069;46.396;48.102;2023-10-09T15:35:48;9.42;51.49
75489;HTU21D;64069;46.396;48.102;2023-10-09T15:38:15;9.46;51.50
75489;HTU21D;64069;46.396;48.102;2023-10-09T15:40:43;9.55;51.41
75489;HTU21D;64069;46.396;48.102;2023-10-09T15:43:13;9.68;51.17
75489;HTU21D;64069;46.396;48.102;2023-10-09T15:45:44;9.83;50.95
75489;HTU21D;64069;46.396;48.102;2023-10-09T15:48:17;9.91;50.85
75489;HTU21D;64069;46.396;48.102;2023-10-09T15:50:50;9.93;50.91
75489;HTU21D;64069;46.396;48.102;2023-10-09T15:53:19;9.94;51.02
75489;HTU21D;64069;46.396;48.102;2023-10-09T15:55:49;9.92;51.13
75489;HTU21D;64069;46.396;48.102;2023-10-09T15:58:25;9.91;51.27
75489;HTU21D;64069;46.396;48.102;2023-10-09T16:00:51;9.91;51.39
75489;HTU21D;64069;46.396;48.102;2023-10-09T16:03:21;9.90;51.44
75489;HTU21D;64069;46.396;48.102;2023-10-09T16:05:53;9.91;51.49
75489;HTU21D;64069;46.396;48.102;2023-10-09T16:08:42;9.94;51.53
75489;HTU21D;64069;46.396;48.102;2023-10-09T16:11:22;9.92;51.61
75489;HTU21D;64069;46.396;48.102;2023-10-09T16:14:01;9.88;51.78
75489;HTU21D;64069;46.396;48.102;2023-10-09T16:16:32;9.83;51.95